sensor_id;sensor_type;location;lat;lon;timestamp;pressure;altitude;pressure_sealevel;temperature;humidity
21730;BME280;11027;51.030;13.812;2024-02-15T00:01:01;100527.78;;;10.05;82.85
21730;BME280;11027;51.030;13.812;2024-02-15T00:03:26;100530.69;;;10.03;82.79
21730;BME280;11027;51.030;13.812;2024-02-15T00:05:52;100538.50;;;9.98;83.05
21730;BME280;11027;51.030;13.812;2024-02-15T00:08:17;100537.81;;;9.88;83.31
21730;BME280;11027;51.030;13.812;2024-02-15T00:10:43;100531.66;;;9.77;83.82
21730;BME280;11027;51.030;13.812;2024-02-15T00:13:11;100523.47;;;9.69;84.46
21730;BME280;11027;51.030;13.812;2024-02-15T00:15:36;100530.25;;;9.65;84.66
21730;BME280;11027;51.030;13.812;2024-02-15T00:18:01;100531.59;;;9.61;85.17
21730;BME280;11027;51.030;13.812;2024-02-15T00:20:28;100534.00;;;9.56;85.45
21730;BME280;11027;51.030;13.812;2024-02-15T00:22:53;100533.63;;;9.59;85.67
21730;BME280;11027;51.030;13.812;2024-02-15T00:25:20;100526.16;;;9.61;85.40
21730;BME280;11027;51.030;13.812;2024-02-15T00:27:46;100527.03;;;9.61;85.43
21730;BME280;11027;51.030;13.812;2024-02-15T00:30:11;100527.88;;;9.62;85.58
21730;BME280;11027;51.030;13.812;2024-02-15T00:32:37;100530.75;;;9.60;85.68
21730;BME280;11027;51.030;13.812;2024-02-15T00:35:03;100527.03;;;9.61;85.53
21730;BME280;11027;51.030;13.812;2024-02-15T00:37:33;100517.66;;;9.56;85.69
21730;BME280;11027;51.030;13.812;2024-02-15T00:39:58;100519.34;;;9.57;86.10
21730;BME280;11027;51.030;13.812;2024-02-15T00:42:23;100534.00;;;9.56;86.18
21730;BME280;11027;51.030;13.812;2024-02-15T00:44:48;100525.66;;;9.57;86.50
21730;BME280;11027;51.030;13.812;2024-02-15T00:47:14;100528.19;;;9.59;86.56
21730;BME280;11027;51.030;13.812;2024-02-15T00:49:40;100522.75;;;9.59;86.56
21730;BME280;11027;51.030;13.812;2024-02-15T00:52:05;100528.53;;;9.56;86.37
21730;BME280;11027;51.030;13.812;2024-02-15T00:54:31;100523.78;;;9.58;86.36
21730;BME280;11027;51.030;13.812;2024-02-15T00:56:56;100519.34;;;9.57;86.50
21730;BME280;11027;51.030;13.812;2024-02-15T00:59:21;100512.91;;;9.58;86.55
21730;BME280;11027;51.030;13.812;2024-02-15T01:01:47;100517.66;;;9.56;86.82
21730;BME280;11027;51.030;13.812;2024-02-15T01:04:13;100526.81;;;9.55;86.85
21730;BME280;11027;51.030;13.812;2024-02-15T01:06:38;100520.22;;;9.57;86.94
21730;BME280;11027;51.030;13.812;2024-02-15T01:09:04;100526.81;;;9.55;86.96
21730;BME280;11027;51.030;13.812;2024-02-15T01:11:30;100522.06;;;9.57;87.18
21730;BME280;11027;51.030;13.812;2024-02-15T01:13:57;100525.97;;;9.54;87.00
21730;BME280;11027;51.030;13.812;2024-02-15T01:16:22;100520.38;;;9.56;87.20
21730;BME280;11027;51.030;13.812;2024-02-15T01:18:48;100525.47;;;9.59;87.07
21730;BME280;11027;51.030;13.812;2024-02-15T01:21:14;100526.16;;;9.61;87.16
21730;BME280;11027;51.030;13.812;2024-02-15T01:23:39;100527.88;;;9.62;86.74
21730;BME280;11027;51.030;13.812;2024-02-15T01:26:04;100524.31;;;9.61;86.78
21730;BME280;11027;51.030;13.812;2024-02-15T01:28:30;100526.16;;;9.61;86.82
21730;BME280;11027;51.030;13.812;2024-02-15T01:30:55;100523.44;;;9.61;86.90
21730;BME280;11027;51.030;13.812;2024-02-15T01:33:20;100519.03;;;9.60;87.05
21730;BME280;11027;51.030;13.812;2024-02-15T01:35:45;100516.84;;;9.64;86.96
21730;BME280;11027;51.030;13.812;2024-02-15T01:38:11;100514.31;;;9.70;86.95
21730;BME280;11027;51.030;13.812;2024-02-15T01:40:36;100511.91;;;9.75;86.34
21730;BME280;11027;51.030;13.812;2024-02-15T01:43:01;100513.47;;;9.78;86.41
21730;BME280;11027;51.030;13.812;2024-02-15T01:45:26;100516.69;;;9.81;86.24
21730;BME280;11027;51.030;13.812;2024-02-15T01:47:53;100514.66;;;9.84;85.93
21730;BME280;11027;51.030;13.812;2024-02-15T01:50:19;100503.75;;;9.84;85.99
21730;BME280;11027;51.030;13.812;2024-02-15T01:52:47;100506.84;;;9.89;86.02
21730;BME280;11027;51.030;13.812;2024-02-15T01:55:14;100503.97;;;9.90;85.87
21730;BME280;11027;51.030;13.812;2024-02-15T01:57:46;100500.56;;;9.88;85.75
21730;BME280;11027;51.030;13.812;2024-02-15T02:00:15;100499.53;;;9.89;85.98
21730;BME280;11027;51.030;13.812;2024-02-15T02:02:44;100508.91;;;9.95;85.63
21730;BME280;11027;51.030;13.812;2024-02-15T02:05:10;100503.28;;;9.96;85.49
21730;BME280;11027;51.030;13.812;2024-02-15T02:07:35;100507.22;;;9.94;85.99
21730;BME280;11027;51.030;13.812;2024-02-15T02:10:01;100500.72;;;9.95;85.63
21730;BME280;11027;51.030;13.812;2024-02-15T02:12:26;100503.13;;;9.98;85.54
21730;BME280;11027;51.030;13.812;2024-02-15T02:14:54;100500.06;;;10.01;85.36
21730;BME280;11027;51.030;13.812;2024-02-15T02:17:20;100499.22;;;10.00;85.70
21730;BME280;11027;51.030;13.812;2024-02-15T02:19:46;100489.16;;;10.01;85.42
21730;BME280;11027;51.030;13.812;2024-02-15T02:22:13;100506.34;;;10.01;85.38
21730;BME280;11027;51.030;13.812;2024-02-15T02:27:10;100511.97;;;10.00;85.41
21730;BME280;11027;51.030;13.812;2024-02-15T02:29:42;100506.84;;;9.97;85.86
21730;BME280;11027;51.030;13.812;2024-02-15T02:32:10;100499.03;;;9.94;85.81
21730;BME280;11027;51.030;13.812;2024-02-15T02:34:36;100501.41;;;9.89;86.26
21730;BME280;11027;51.030;13.812;2024-02-15T02:37:01;100500.88;;;9.85;86.44
21730;BME280;11027;51.030;13.812;2024-02-15T02:39:30;100505.47;;;9.85;86.90
21730;BME280;11027;51.030;13.812;2024-02-15T02:41:56;100494.59;;;9.85;87.10
21730;BME280;11027;51.030;13.812;2024-02-15T02:44:22;100490.16;;;9.84;87.22
21730;BME280;11027;51.030;13.812;2024-02-15T02:46:47;100495.28;;;9.78;87.36
21730;BME280;11027;51.030;13.812;2024-02-15T02:49:12;100499.00;;;9.77;87.52
21730;BME280;11027;51.030;13.812;2024-02-15T02:51:38;100495.28;;;9.78;87.67
21730;BME280;11027;51.030;13.812;2024-02-15T02:54:03;100490.00;;;9.85;87.56
21730;BME280;11027;51.030;13.812;2024-02-15T02:56:32;100485.06;;;9.89;87.63
21730;BME280;11027;51.030;13.812;2024-02-15T02:58:57;100489.00;;;9.94;87.48
21730;BME280;11027;51.030;13.812;2024-02-15T03:01:23;100489.53;;;9.98;86.86
21730;BME280;11027;51.030;13.812;2024-02-15T03:03:52;100494.78;;;9.99;87.03
21730;BME280;11027;51.030;13.812;2024-02-15T03:06:20;100496.66;;;9.99;86.83
21730;BME280;11027;51.030;13.812;2024-02-15T03:08:45;100496.66;;;9.99;87.24
21730;BME280;11027;51.030;13.812;2024-02-15T03:11:11;100494.63;;;10.01;87.08
21730;BME280;11027;51.030;13.812;2024-02-15T03:13:37;100498.38;;;10.00;87.16
21730;BME280;11027;51.030;13.812;2024-02-15T03:16:02;100494.28;;;10.04;87.07
21730;BME280;11027;51.030;13.812;2024-02-15T03:18:29;100492.25;;;10.06;86.82
21730;BME280;11027;51.030;13.812;2024-02-15T03:20:54;100495.66;;;10.08;86.80
21730;BME280;11027;51.030;13.812;2024-02-15T03:23:19;100483.88;;;10.08;86.56
21730;BME280;11027;51.030;13.812;2024-02-15T03:25:45;100487.66;;;10.07;86.57
21730;BME280;11027;51.030;13.812;2024-02-15T03:28:10;100482.03;;;10.08;86.63
21730;BME280;11027;51.030;13.812;2024-02-15T03:30:35;100491.56;;;10.12;86.59
21730;BME280;11027;51.030;13.812;2024-02-15T03:33:00;100490.22;;;10.08;86.61
21730;BME280;11027;51.030;13.812;2024-02-15T03:35:27;100487.81;;;10.05;86.71
21730;BME280;11027;51.030;13.812;2024-02-15T03:37:56;100484.41;;;10.03;86.77
21730;BME280;11027;51.030;13.812;2024-02-15T03:40:22;100482.03;;;10.00;86.96
21730;BME280;11027;51.030;13.812;2024-02-15T03:42:49;100478.28;;;10.01;87.14
21730;BME280;11027;51.030;13.812;2024-02-15T03:45:17;100492.06;;;9.99;87.36
21730;BME280;11027;51.030;13.812;2024-02-15T03:47:42;100491.22;;;9.99;87.33
21730;BME280;11027;51.030;13.812;2024-02-15T03:50:08;100486.59;;;9.99;87.04
21730;BME280;11027;51.030;13.812;2024-02-15T03:52:40;100492.25;;;9.98;87.21
21730;BME280;11027;51.030;13.812;2024-02-15T03:55:06;100492.06;;;9.99;87.48
21730;BME280;11027;51.030;13.812;2024-02-15T03:57:32;100490.19;;;10.00;87.16
21730;BME280;11027;51.030;13.812;2024-02-15T03:59:59;100486.13;;;9.96;87.33
21730;BME280;11027;51.030;13.812;2024-02-15T04:02:25;100488.31;;;9.92;87.40
21730;BME280;11027;51.030;13.812;2024-02-15T04:04:54;100495.28;;;9.95;87.79
21730;BME280;11027;51.030;13.812;2024-02-15T04:07:21;100489.53;;;9.98;87.37
21730;BME280;11027;51.030;13.812;2024-02-15T04:09:47;100491.88;;;10.01;87.58
21730;BME280;11027;51.030;13.812;2024-02-15T04:12:12;100490.88;;;10.02;87.36
21730;BME280;11027;51.030;13.812;2024-02-15T04:14:39;100499.72;;;10.04;87.42
21730;BME280;11027;51.030;13.812;2024-02-15T04:17:05;100500.72;;;10.03;87.22
21730;BME280;11027;51.030;13.812;2024-02-15T04:19:31;100500.06;;;10.01;87.45
21730;BME280;11027;51.030;13.812;2024-02-15T04:21:56;100499.38;;;9.99;87.42
21730;BME280;11027;51.030;13.812;2024-02-15T04:24:22;100502.44;;;9.96;87.81
21730;BME280;11027;51.030;13.812;2024-02-15T04:26:48;100498.16;;;9.93;88.08
21730;BME280;11027;51.030;13.812;2024-02-15T04:29:15;100504.81;;;9.91;87.93
21730;BME280;11027;51.030;13.812;2024-02-15T04:31:41;100500.72;;;9.95;87.99
21730;BME280;11027;51.030;13.812;2024-02-15T04:34:07;100507.88;;;9.96;88.18
21730;BME280;11027;51.030;13.812;2024-02-15T04:36:34;100498.69;;;9.97;88.24
21730;BME280;11027;51.030;13.812;2024-02-15T04:39:00;100506.84;;;9.97;88.02
21730;BME280;11027;51.030;13.812;2024-02-15T04:41:27;100496.31;;;10.02;88.01
21730;BME280;11027;51.030;13.812;2024-02-15T04:43:54;100498.53;;;10.07;87.48
21730;BME280;11027;51.030;13.812;2024-02-15T04:46:19;100506.53;;;10.08;87.51
21730;BME280;11027;51.030;13.812;2024-02-15T04:48:47;100504.31;;;10.12;87.27
21730;BME280;11027;51.030;13.812;2024-02-15T04:51:12;100502.47;;;10.12;86.91
21730;BME280;11027;51.030;13.812;2024-02-15T04:53:37;100506.53;;;10.08;87.23
21730;BME280;11027;51.030;13.812;2024-02-15T04:56:05;100511.47;;;10.05;87.82
21730;BME280;11027;51.030;13.812;2024-02-15T04:58:36;100516.38;;;10.01;87.58
21730;BME280;11027;51.030;13.812;2024-02-15T05:01:02;100509.59;;;9.97;88.08
21730;BME280;11027;51.030;13.812;2024-02-15T05:03:30;100512.47;;;9.95;88.18
21730;BME280;11027;51.030;13.812;2024-02-15T05:05:57;100517.91;;;9.95;88.38
21730;BME280;11027;51.030;13.812;2024-02-15T05:08:23;100519.09;;;9.93;88.44
21730;BME280;11027;51.030;13.812;2024-02-15T05:10:48;100513.66;;;9.93;88.93
21730;BME280;11027;51.030;13.812;2024-02-15T05:13:13;100517.41;;;9.92;88.98
21730;BME280;11027;51.030;13.812;2024-02-15T05:15:39;100511.63;;;9.95;88.92
21730;BME280;11027;51.030;13.812;2024-02-15T05:18:04;100512.31;;;9.97;89.04
21730;BME280;11027;51.030;13.812;2024-02-15T05:20:33;100518.59;;;9.97;88.88
21730;BME280;11027;51.030;13.812;2024-02-15T05:22:59;100516.75;;;9.98;88.86
21730;BME280;11027;51.030;13.812;2024-02-15T05:25:24;100518.44;;;9.99;88.97
21730;BME280;11027;51.030;13.812;2024-02-15T05:27:52;100518.78;;;9.96;88.96
21730;BME280;11027;51.030;13.812;2024-02-15T05:30:18;100517.06;;;9.95;89.10
21730;BME280;11027;51.030;13.812;2024-02-15T05:32:44;100515.88;;;9.97;89.04
21730;BME280;11027;51.030;13.812;2024-02-15T05:35:10;100520.47;;;9.97;89.13
21730;BME280;11027;51.030;13.812;2024-02-15T05:37:36;100515.38;;;9.94;89.09
21730;BME280;11027;51.030;13.812;2024-02-15T05:40:01;100518.78;;;9.96;89.12
21730;BME280;11027;51.030;13.812;2024-02-15T05:42:27;100520.47;;;9.97;89.28
21730;BME280;11027;51.030;13.812;2024-02-15T05:44:52;100523.72;;;10.00;88.94
21730;BME280;11027;51.030;13.812;2024-02-15T05:47:17;100527.28;;;10.01;89.02
21730;BME280;11027;51.030;13.812;2024-02-15T05:49:42;100530.34;;;10.06;89.00
21730;BME280;11027;51.030;13.812;2024-02-15T05:52:08;100532.03;;;10.07;88.70
21730;BME280;11027;51.030;13.812;2024-02-15T05:54:34;100535.97;;;10.13;88.64
21730;BME280;11027;51.030;13.812;2024-02-15T05:56:59;100533.25;;;10.13;88.38
21730;BME280;11027;51.030;13.812;2024-02-15T05:59:25;100525.59;;;10.08;88.52
21730;BME280;11027;51.030;13.812;2024-02-15T06:01:51;100532.72;;;10.09;88.67
21730;BME280;11027;51.030;13.812;2024-02-15T06:04:16;100531.53;;;10.12;88.67
21730;BME280;11027;51.030;13.812;2024-02-15T06:06:42;100533.94;;;10.15;88.58
21730;BME280;11027;51.030;13.812;2024-02-15T06:09:07;100529.69;;;10.12;88.50
21730;BME280;11027;51.030;13.812;2024-02-15T06:11:33;100532.72;;;10.09;88.90
21730;BME280;11027;51.030;13.812;2024-02-15T06:13:58;100541.72;;;10.10;88.90
21730;BME280;11027;51.030;13.812;2024-02-15T06:16:23;100537.50;;;10.07;89.06
21730;BME280;11027;51.030;13.812;2024-02-15T06:18:48;100553.50;;;10.10;89.44
21730;BME280;11027;51.030;13.812;2024-02-15T06:21:14;100553.16;;;10.13;89.42
21730;BME280;11027;51.030;13.812;2024-02-15T06:23:39;100551.09;;;10.15;89.29
21730;BME280;11027;51.030;13.812;2024-02-15T06:26:05;100562.00;;;10.15;89.18
21730;BME280;11027;51.030;13.812;2024-02-15T06:28:31;100562.00;;;10.15;89.36
21730;BME280;11027;51.030;13.812;2024-02-15T06:31:15;100563.72;;;10.16;89.66
21730;BME280;11027;51.030;13.812;2024-02-15T06:33:59;100561.69;;;10.18;89.57
21730;BME280;11027;51.030;13.812;2024-02-15T06:36:52;100575.13;;;10.20;89.40
21730;BME280;11027;51.030;13.812;2024-02-15T06:39:36;100583.47;;;10.18;89.93
21730;BME280;11027;51.030;13.812;2024-02-15T06:42:09;100574.25;;;10.19;90.05
21730;BME280;11027;51.030;13.812;2024-02-15T06:44:37;100575.97;;;10.20;90.09
21730;BME280;11027;51.030;13.812;2024-02-15T06:47:05;100577.66;;;10.21;89.96
21730;BME280;11027;51.030;13.812;2024-02-15T06:49:31;100579.38;;;10.23;90.11
21730;BME280;11027;51.030;13.812;2024-02-15T06:51:57;100575.63;;;10.24;90.48
21730;BME280;11027;51.030;13.812;2024-02-15T06:54:24;100577.66;;;10.21;90.62
21730;BME280;11027;51.030;13.812;2024-02-15T06:56:49;100570.53;;;10.20;90.76
21730;BME280;11027;51.030;13.812;2024-02-15T06:59:16;100572.56;;;10.18;90.95
21730;BME280;11027;51.030;13.812;2024-02-15T07:01:43;100574.25;;;10.19;91.59
21730;BME280;11027;51.030;13.812;2024-02-15T07:04:09;100566.78;;;10.21;91.62
21730;BME280;11027;51.030;13.812;2024-02-15T07:06:38;100570.53;;;10.20;91.91
21730;BME280;11027;51.030;13.812;2024-02-15T07:09:04;100575.97;;;10.20;91.97
21730;BME280;11027;51.030;13.812;2024-02-15T07:11:32;100568.81;;;10.19;92.49
21730;BME280;11027;51.030;13.812;2024-02-15T07:13:59;100567.81;;;10.20;92.80
21730;BME280;11027;51.030;13.812;2024-02-15T07:16:24;100571.38;;;10.21;92.97
21730;BME280;11027;51.030;13.812;2024-02-15T07:18:49;100562.19;;;10.22;93.05
21730;BME280;11027;51.030;13.812;2024-02-15T07:21:15;100568.13;;;10.26;93.06
21730;BME280;11027;51.030;13.812;2024-02-15T07:23:42;100568.13;;;10.26;93.40
21730;BME280;11027;51.030;13.812;2024-02-15T07:26:07;100566.44;;;10.25;93.57
21730;BME280;11027;51.030;13.812;2024-02-15T07:28:33;100561.16;;;10.23;93.70
21730;BME280;11027;51.030;13.812;2024-02-15T07:30:58;100554.88;;;10.23;94.16
21730;BME280;11027;51.030;13.812;2024-02-15T07:33:25;100555.56;;;10.25;94.42
21730;BME280;11027;51.030;13.812;2024-02-15T07:35:50;100565.25;;;10.27;94.42
21730;BME280;11027;51.030;13.812;2024-02-15T07:38:16;100562.38;;;10.29;94.50
21730;BME280;11027;51.030;13.812;2024-02-15T07:40:42;100567.00;;;10.36;94.70
21730;BME280;11027;51.030;13.812;2024-02-15T07:43:07;100564.44;;;10.43;94.48
21730;BME280;11027;51.030;13.812;2024-02-15T07:45:33;100573.28;;;10.45;94.27
21730;BME280;11027;51.030;13.812;2024-02-15T07:48:01;100574.97;;;10.46;94.33
21730;BME280;11027;51.030;13.812;2024-02-15T07:50:29;100569.38;;;10.48;94.26
21730;BME280;11027;51.030;13.812;2024-02-15T07:52:54;100563.75;;;10.49;94.22
21730;BME280;11027;51.030;13.812;2024-02-15T07:55:20;100561.38;;;10.54;94.39
21730;BME280;11027;51.030;13.812;2024-02-15T07:57:45;100562.91;;;10.65;94.04
21730;BME280;11027;51.030;13.812;2024-02-15T08:00:13;100569.19;;;10.66;93.61
21730;BME280;11027;51.030;13.812;2024-02-15T08:02:41;100569.19;;;10.66;93.42
21730;BME280;11027;51.030;13.812;2024-02-15T08:05:07;100568.19;;;10.67;93.51
21730;BME280;11027;51.030;13.812;2024-02-15T08:07:37;100561.69;;;10.68;93.40
21730;BME280;11027;51.030;13.812;2024-02-15T08:10:02;100573.97;;;10.72;93.79
21730;BME280;11027;51.030;13.812;2024-02-15T08:12:28;100569.19;;;10.82;93.77
21730;BME280;11027;51.030;13.812;2024-02-15T08:14:54;100565.75;;;10.96;93.45
21730;BME280;11027;51.030;13.812;2024-02-15T08:17:19;100560.59;;;11.10;93.24
21730;BME280;11027;51.030;13.812;2024-02-15T08:19:44;100554.97;;;11.19;92.64
21730;BME280;11027;51.030;13.812;2024-02-15T08:22:09;100554.13;;;11.19;92.16
21730;BME280;11027;51.030;13.812;2024-02-15T08:24:35;100553.59;;;11.24;92.19
21730;BME280;11027;51.030;13.812;2024-02-15T08:27:01;100544.19;;;11.26;91.85
21730;BME280;11027;51.030;13.812;2024-02-15T08:29:29;100544.19;;;11.26;91.93
21730;BME280;11027;51.030;13.812;2024-02-15T08:31:55;100535.34;;;11.24;91.87
21730;BME280;11027;51.030;13.812;2024-02-15T08:34:20;100531.41;;;11.27;91.63
21730;BME280;11027;51.030;13.812;2024-02-15T08:36:45;100524.09;;;11.27;91.71
21730;BME280;11027;51.030;13.812;2024-02-15T08:39:12;100527.50;;;11.29;91.75
21730;BME280;11027;51.030;13.812;2024-02-15T08:41:38;100535.31;;;11.32;91.59
21730;BME280;11027;51.030;13.812;2024-02-15T08:44:04;100534.75;;;11.37;91.79
21730;BME280;11027;51.030;13.812;2024-02-15T08:46:34;100541.94;;;11.38;91.53
21730;BME280;11027;51.030;13.812;2024-02-15T08:49:01;100539.38;;;11.36;91.61
21730;BME280;11027;51.030;13.812;2024-02-15T08:51:26;100541.09;;;11.37;91.82
21730;BME280;11027;51.030;13.812;2024-02-15T08:53:51;100541.78;;;11.39;92.03
21730;BME280;11027;51.030;13.812;2024-02-15T08:56:17;100546.16;;;11.49;91.96
21730;BME280;11027;51.030;13.812;2024-02-15T08:58:42;100546.59;;;11.60;92.17
21730;BME280;11027;51.030;13.812;2024-02-15T09:01:07;100555.38;;;11.79;92.38
21730;BME280;11027;51.030;13.812;2024-02-15T09:03:33;100550.72;;;11.96;92.34
21730;BME280;11027;51.030;13.812;2024-02-15T09:05:59;100541.91;;;12.09;91.74
21730;BME280;11027;51.030;13.812;2024-02-15T09:08:28;100543.75;;;12.16;90.68
21730;BME280;11027;51.030;13.812;2024-02-15T09:10:55;100551.22;;;12.23;90.11
21730;BME280;11027;51.030;13.812;2024-02-15T09:13:20;100552.16;;;12.30;89.70
21730;BME280;11027;51.030;13.812;2024-02-15T09:15:47;100556.72;;;12.37;89.63
21730;BME280;11027;51.030;13.812;2024-02-15T09:18:13;100550.69;;;12.42;89.00
21730;BME280;11027;51.030;13.812;2024-02-15T09:20:38;100553.63;;;12.40;88.35
21730;BME280;11027;51.030;13.812;2024-02-15T09:23:09;100550.34;;;12.45;88.44
21730;BME280;11027;51.030;13.812;2024-02-15T09:25:39;100547.94;;;12.50;88.35
21730;BME280;11027;51.030;13.812;2024-02-15T09:28:05;100559.31;;;12.54;87.90
21730;BME280;11027;51.030;13.812;2024-02-15T09:30:30;100551.31;;;12.52;87.81
21730;BME280;11027;51.030;13.812;2024-02-15T09:32:57;100553.00;;;12.53;87.35
21730;BME280;11027;51.030;13.812;2024-02-15T09:35:22;100556.06;;;12.58;87.32
21730;BME280;11027;51.030;13.812;2024-02-15T09:37:48;100554.34;;;12.57;87.06
21730;BME280;11027;51.030;13.812;2024-02-15T09:40:14;100551.78;;;12.56;86.72
21730;BME280;11027;51.030;13.812;2024-02-15T09:42:42;100555.06;;;12.51;86.60
21730;BME280;11027;51.030;13.812;2024-02-15T09:45:10;100559.38;;;12.46;86.38
21730;BME280;11027;51.030;13.812;2024-02-15T09:47:36;100556.16;;;12.42;86.36
21730;BME280;11027;51.030;13.812;2024-02-15T09:50:06;100554.47;;;12.41;86.65
21730;BME280;11027;51.030;13.812;2024-02-15T09:52:32;100559.28;;;12.39;86.89
21730;BME280;11027;51.030;13.812;2024-02-15T09:55:02;100558.63;;;12.37;86.74
21730;BME280;11027;51.030;13.812;2024-02-15T09:57:28;100563.59;;;12.33;86.72
21730;BME280;11027;51.030;13.812;2024-02-15T09:59:54;100570.63;;;12.28;86.95
21730;BME280;11027;51.030;13.812;2024-02-15T10:02:20;100563.81;;;12.24;87.08
21730;BME280;11027;51.030;13.812;2024-02-15T10:04:46;100565.03;;;12.21;87.16
21730;BME280;11027;51.030;13.812;2024-02-15T10:07:13;100565.44;;;12.18;87.38
21730;BME280;11027;51.030;13.812;2024-02-15T10:09:38;100568.69;;;12.13;87.27
21730;BME280;11027;51.030;13.812;2024-02-15T10:12:08;100562.56;;;12.11;87.81
21730;BME280;11027;51.030;13.812;2024-02-15T10:14:34;100561.03;;;12.09;87.87
21730;BME280;11027;51.030;13.812;2024-02-15T10:17:06;100556.41;;;12.09;88.00
21730;BME280;11027;51.030;13.812;2024-02-15T10:19:35;100557.41;;;12.16;88.26
21730;BME280;11027;51.030;13.812;2024-02-15T10:22:06;100550.38;;;12.22;88.11
21730;BME280;11027;51.030;13.812;2024-02-15T10:24:31;100551.81;;;12.33;87.56
21730;BME280;11027;51.030;13.812;2024-02-15T10:27:01;100550.00;;;12.48;87.40
21730;BME280;11027;51.030;13.812;2024-02-15T10:29:32;100547.78;;;12.67;87.21
21730;BME280;11027;51.030;13.812;2024-02-15T10:32:00;100542.50;;;12.80;86.55
21730;BME280;11027;51.030;13.812;2024-02-15T10:34:25;100539.69;;;12.88;86.33
21730;BME280;11027;51.030;13.812;2024-02-15T10:36:53;100550.75;;;12.95;85.83
21730;BME280;11027;51.030;13.812;2024-02-15T10:39:19;100546.78;;;12.97;85.50
21730;BME280;11027;51.030;13.812;2024-02-15T10:41:46;100549.88;;;12.94;84.68
21730;BME280;11027;51.030;13.812;2024-02-15T10:44:19;100554.16;;;12.97;84.51
21730;BME280;11027;51.030;13.812;2024-02-15T10:46:51;100549.13;;;13.00;84.63
21730;BME280;11027;51.030;13.812;2024-02-15T10:49:24;100541.88;;;13.08;84.52
21730;BME280;11027;51.030;13.812;2024-02-15T10:51:54;100533.69;;;13.08;84.26
21730;BME280;11027;51.030;13.812;2024-02-15T10:57:03;100532.56;;;13.17;84.17
21730;BME280;11027;51.030;13.812;2024-02-15T10:59:32;100529.06;;;13.23;83.61
21730;BME280;11027;51.030;13.812;2024-02-15T11:02:00;100533.41;;;13.32;83.69
21730;BME280;11027;51.030;13.812;2024-02-15T11:04:27;100518.50;;;13.35;83.36
21730;BME280;11027;51.030;13.812;2024-02-15T11:06:58;100521.34;;;13.42;83.37
21730;BME280;11027;51.030;13.812;2024-02-15T11:09:23;100526.41;;;13.45;83.21
21730;BME280;11027;51.030;13.812;2024-02-15T11:11:52;100514.44;;;13.46;82.81
21730;BME280;11027;51.030;13.812;2024-02-15T11:14:30;100517.00;;;13.47;83.01
21730;BME280;11027;51.030;13.812;2024-02-15T11:16:58;100515.28;;;13.46;82.78
21730;BME280;11027;51.030;13.812;2024-02-15T11:22:01;100513.91;;;13.35;82.75
21730;BME280;11027;51.030;13.812;2024-02-15T11:24:32;100515.66;;;13.28;82.57
21730;BME280;11027;51.030;13.812;2024-02-15T11:27:04;100512.44;;;13.25;82.67
21730;BME280;11027;51.030;13.812;2024-02-15T11:29:58;100520.84;;;13.23;82.83
21730;BME280;11027;51.030;13.812;2024-02-15T11:32:48;100520.13;;;13.29;82.88
21730;BME280;11027;51.030;13.812;2024-02-15T11:35:20;100506.13;;;13.39;82.90
21730;BME280;11027;51.030;13.812;2024-02-15T11:40:16;100514.75;;;13.72;82.58
21730;BME280;11027;51.030;13.812;2024-02-15T11:42:42;100506.59;;;13.94;82.15
21730;BME280;11027;51.030;13.812;2024-02-15T11:45:08;100501.50;;;14.12;81.56
21730;BME280;11027;51.030;13.812;2024-02-15T11:47:38;100494.19;;;14.19;81.01
21730;BME280;11027;51.030;13.812;2024-02-15T11:50:08;100497.25;;;14.31;80.48
21730;BME280;11027;51.030;13.812;2024-02-15T11:52:33;100491.03;;;14.44;80.51
21730;BME280;11027;51.030;13.812;2024-02-15T11:55:08;100494.03;;;14.49;79.80
21730;BME280;11027;51.030;13.812;2024-02-15T11:57:36;100496.97;;;14.48;79.40
21730;BME280;11027;51.030;13.812;2024-02-15T12:00:03;100498.84;;;14.47;79.32
21730;BME280;11027;51.030;13.812;2024-02-15T12:03:00;100495.09;;;14.48;79.33
21730;BME280;11027;51.030;13.812;2024-02-15T12:05:44;100494.97;;;14.56;79.70
21730;BME280;11027;51.030;13.812;2024-02-15T12:08:28;100494.41;;;14.68;78.86
21730;BME280;11027;51.030;13.812;2024-02-15T12:11:14;100486.28;;;14.81;78.66
21730;BME280;11027;51.030;13.812;2024-02-15T12:13:58;100486.94;;;14.83;78.37
21730;BME280;11027;51.030;13.812;2024-02-15T12:16:42;100489.22;;;14.79;78.44
21730;BME280;11027;51.030;13.812;2024-02-15T12:19:26;100483.69;;;14.73;78.05
21730;BME280;11027;51.030;13.812;2024-02-15T12:21:52;100492.06;;;14.65;78.63
21730;BME280;11027;51.030;13.812;2024-02-15T12:24:18;100485.31;;;14.60;78.66
21730;BME280;11027;51.030;13.812;2024-02-15T12:26:47;100485.69;;;14.57;78.53
21730;BME280;11027;51.030;13.812;2024-02-15T12:29:17;100474.72;;;14.57;78.81
21730;BME280;11027;51.030;13.812;2024-02-15T12:31:43;100470.53;;;14.62;78.54
21730;BME280;11027;51.030;13.812;2024-02-15T12:34:09;100469.53;;;14.69;78.93
21730;BME280;11027;51.030;13.812;2024-02-15T12:36:35;100468.75;;;14.82;78.71
21730;BME280;11027;51.030;13.812;2024-02-15T12:39:05;100465.47;;;14.93;78.71
21730;BME280;11027;51.030;13.812;2024-02-15T12:41:40;100463.66;;;15.07;78.66
21730;BME280;11027;51.030;13.812;2024-02-15T12:44:06;100453.38;;;15.23;78.18
21730;BME280;11027;51.030;13.812;2024-02-15T12:46:34;100452.59;;;15.35;78.14
21730;BME280;11027;51.030;13.812;2024-02-15T12:51:50;100452.44;;;15.50;76.60
21730;BME280;11027;51.030;13.812;2024-02-15T12:54:23;100460.00;;;15.42;76.36
21730;BME280;11027;51.030;13.812;2024-02-15T12:56:49;100460.19;;;15.33;76.11